sensor_id;sensor_type;location;lat;lon;timestamp;temperature;humidity
52036;DHT22;38046;49.448;32.074;2022-11-20T00:00:50;4.70;70.20
52036;DHT22;38046;49.448;32.074;2022-11-20T00:03:16;4.70;70.20
52036;DHT22;38046;49.448;32.074;2022-11-20T00:05:43;4.70;70.40
52036;DHT22;38046;49.448;32.074;2022-11-20T00:08:08;4.70;70.20
52036;DHT22;38046;49.448;32.074;2022-11-20T00:10:37;4.70;70.00
52036;DHT22;38046;49.448;32.074;2022-11-20T00:13:03;4.60;69.90
52036;DHT22;38046;49.448;32.074;2022-11-20T00:15:29;4.60;69.90
52036;DHT22;38046;49.448;32.074;2022-11-20T00:17:54;4.60;69.90
52036;DHT22;38046;49.448;32.074;2022-11-20T00:20:20;4.60;69.90
52036;DHT22;38046;49.448;32.074;2022-11-20T00:22:45;4.50;70.00
52036;DHT22;38046;49.448;32.074;2022-11-20T00:25:11;4.50;70.10
52036;DHT22;38046;49.448;32.074;2022-11-20T00:27:37;4.50;70.10
52036;DHT22;38046;49.448;32.074;2022-11-20T00:30:04;4.50;69.80
52036;DHT22;38046;49.448;32.074;2022-11-20T00:32:30;4.50;69.80
52036;DHT22;38046;49.448;32.074;2022-11-20T00:34:56;4.50;69.60
52036;DHT22;38046;49.448;32.074;2022-11-20T00:37:21;4.50;69.50
52036;DHT22;38046;49.448;32.074;2022-11-20T00:39:47;4.50;69.60
52036;DHT22;38046;49.448;32.074;2022-11-20T00:42:13;4.50;69.80
52036;DHT22;38046;49.448;32.074;2022-11-20T00:44:39;4.60;69.80
52036;DHT22;38046;49.448;32.074;2022-11-20T00:47:04;4.60;69.80
52036;DHT22;38046;49.448;32.074;2022-11-20T00:49:30;4.60;69.90
52036;DHT22;38046;49.448;32.074;2022-11-20T00:51:56;4.70;69.90
52036;DHT22;38046;49.448;32.074;2022-11-20T00:54:21;4.80;70.00
52036;DHT22;38046;49.448;32.074;2022-11-20T00:56:47;4.80;69.80
52036;DHT22;38046;49.448;32.074;2022-11-20T00:59:13;5.00;69.90
52036;DHT22;38046;49.448;32.074;2022-11-20T01:01:38;5.00;69.80
52036;DHT22;38046;49.448;32.074;2022-11-20T01:04:04;5.10;69.60
52036;DHT22;38046;49.448;32.074;2022-11-20T01:06:34;5.20;69.40
52036;DHT22;38046;49.448;32.074;2022-11-20T01:09:11;5.30;69.10
52036;DHT22;38046;49.448;32.074;2022-11-20T01:11:40;5.30;69.00
52036;DHT22;38046;49.448;32.074;2022-11-20T01:14:12;5.30;68.90
52036;DHT22;38046;49.448;32.074;2022-11-20T01:16:41;5.30;68.80
52036;DHT22;38046;49.448;32.074;2022-11-20T01:19:11;5.30;68.80
52036;DHT22;38046;49.448;32.074;2022-11-20T01:21:39;5.30;68.80
52036;DHT22;38046;49.448;32.074;2022-11-20T01:24:06;5.30;68.80
52036;DHT22;38046;49.448;32.074;2022-11-20T01:26:37;5.30;68.80
52036;DHT22;38046;49.448;32.074;2022-11-20T01:29:03;5.40;69.10
52036;DHT22;38046;49.448;32.074;2022-11-20T01:31:34;5.40;68.90
52036;DHT22;38046;49.448;32.074;2022-11-20T01:34:04;5.40;68.80
52036;DHT22;38046;49.448;32.074;2022-11-20T01:36:32;5.50;69.10
52036;DHT22;38046;49.448;32.074;2022-11-20T01:39:00;5.50;69.20
52036;DHT22;38046;49.448;32.074;2022-11-20T01:41:29;5.60;69.00
52036;DHT22;38046;49.448;32.074;2022-11-20T01:44:16;5.60;68.80
52036;DHT22;38046;49.448;32.074;2022-11-20T01:46:57;5.50;68.80
52036;DHT22;38046;49.448;32.074;2022-11-20T01:49:34;5.50;69.10
52036;DHT22;38046;49.448;32.074;2022-11-20T01:52:19;5.50;69.10
52036;DHT22;38046;49.448;32.074;2022-11-20T01:54:59;5.50;69.00
52036;DHT22;38046;49.448;32.074;2022-11-20T01:57:28;5.50;68.90
52036;DHT22;38046;49.448;32.074;2022-11-20T02:00:09;5.50;68.90
52036;DHT22;38046;49.448;32.074;2022-11-20T02:02:36;5.50;69.00
52036;DHT22;38046;49.448;32.074;2022-11-20T02:05:55;5.40;69.00
52036;DHT22;38046;49.448;32.074;2022-11-20T02:07:56;5.40;69.10
52036;DHT22;38046;49.448;32.074;2022-11-20T02:10:23;5.40;69.40
52036;DHT22;38046;49.448;32.074;2022-11-20T02:12:49;5.50;69.50
52036;DHT22;38046;49.448;32.074;2022-11-20T02:15:33;5.50;69.40
52036;DHT22;38046;49.448;32.074;2022-11-20T02:17:59;5.60;69.20
52036;DHT22;38046;49.448;32.074;2022-11-20T02:20:25;5.70;69.10
52036;DHT22;38046;49.448;32.074;2022-11-20T02:22:57;5.70;69.10
52036;DHT22;38046;49.448;32.074;2022-11-20T02:25:24;5.70;69.10
52036;DHT22;38046;49.448;32.074;2022-11-20T02:27:51;5.70;69.00
52036;DHT22;38046;49.448;32.074;2022-11-20T02:30:17;5.70;68.90
52036;DHT22;38046;49.448;32.074;2022-11-20T02:32:43;5.70;69.10
52036;DHT22;38046;49.448;32.074;2022-11-20T02:37:46;5.80;68.80
52036;DHT22;38046;49.448;32.074;2022-11-20T02:40:12;5.80;68.80
52036;DHT22;38046;49.448;32.074;2022-11-20T02:42:38;5.80;68.90
52036;DHT22;38046;49.448;32.074;2022-11-20T02:45:04;5.80;68.80
52036;DHT22;38046;49.448;32.074;2022-11-20T02:47:31;5.80;68.90
52036;DHT22;38046;49.448;32.074;2022-11-20T02:49:57;5.80;68.70
52036;DHT22;38046;49.448;32.074;2022-11-20T02:52:23;5.80;68.50
52036;DHT22;38046;49.448;32.074;2022-11-20T02:54:48;5.80;68.60
52036;DHT22;38046;49.448;32.074;2022-11-20T02:57:14;5.80;68.70
52036;DHT22;38046;49.448;32.074;2022-11-20T02:59:39;5.80;68.80
52036;DHT22;38046;49.448;32.074;2022-11-20T03:02:05;5.90;68.70
52036;DHT22;38046;49.448;32.074;2022-11-20T03:04:31;5.90;68.50
52036;DHT22;38046;49.448;32.074;2022-11-20T03:06:57;6.00;68.60
52036;DHT22;38046;49.448;32.074;2022-11-20T03:09:22;5.90;68.50
52036;DHT22;38046;49.448;32.074;2022-11-20T03:11:48;5.90;68.50
52036;DHT22;38046;49.448;32.074;2022-11-20T03:14:14;6.00;68.60
52036;DHT22;38046;49.448;32.074;2022-11-20T03:16:39;6.00;68.40
52036;DHT22;38046;49.448;32.074;2022-11-20T03:19:05;6.00;68.30
52036;DHT22;38046;49.448;32.074;2022-11-20T03:21:33;6.00;68.90
52036;DHT22;38046;49.448;32.074;2022-11-20T03:23:59;5.90;68.40
52036;DHT22;38046;49.448;32.074;2022-11-20T03:26:26;5.90;68.50
52036;DHT22;38046;49.448;32.074;2022-11-20T03:28:54;5.90;68.60
52036;DHT22;38046;49.448;32.074;2022-11-20T03:31:25;5.90;68.60
52036;DHT22;38046;49.448;32.074;2022-11-20T03:33:51;5.90;68.60
52036;DHT22;38046;49.448;32.074;2022-11-20T03:36:18;6.00;68.60
52036;DHT22;38046;49.448;32.074;2022-11-20T03:38:44;6.00;68.70
52036;DHT22;38046;49.448;32.074;2022-11-20T03:41:22;6.00;68.70
52036;DHT22;38046;49.448;32.074;2022-11-20T03:43:52;6.00;68.40
52036;DHT22;38046;49.448;32.074;2022-11-20T03:46:18;6.00;68.30
52036;DHT22;38046;49.448;32.074;2022-11-20T03:48:43;6.00;68.10
52036;DHT22;38046;49.448;32.074;2022-11-20T03:51:15;6.00;67.90
52036;DHT22;38046;49.448;32.074;2022-11-20T03:53:42;6.00;68.20
52036;DHT22;38046;49.448;32.074;2022-11-20T03:56:09;5.90;68.10
52036;DHT22;38046;49.448;32.074;2022-11-20T03:58:35;5.90;67.90
52036;DHT22;38046;49.448;32.074;2022-11-20T04:01:08;5.90;67.80
52036;DHT22;38046;49.448;32.074;2022-11-20T04:03:35;5.80;67.80
52036;DHT22;38046;49.448;32.074;2022-11-20T04:06:22;5.80;68.10
52036;DHT22;38046;49.448;32.074;2022-11-20T04:08:49;5.80;68.10
52036;DHT22;38046;49.448;32.074;2022-11-20T04:11:23;5.90;68.20
52036;DHT22;38046;49.448;32.074;2022-11-20T04:13:52;5.90;68.20
52036;DHT22;38046;49.448;32.074;2022-11-20T04:16:19;5.90;68.00
52036;DHT22;38046;49.448;32.074;2022-11-20T04:18:45;5.90;67.90
52036;DHT22;38046;49.448;32.074;2022-11-20T04:21:11;5.90;67.90
52036;DHT22;38046;49.448;32.074;2022-11-20T04:23:37;5.80;68.00
52036;DHT22;38046;49.448;32.074;2022-11-20T04:26:05;5.80;68.10
52036;DHT22;38046;49.448;32.074;2022-11-20T04:28:31;5.70;68.10
52036;DHT22;38046;49.448;32.074;2022-11-20T04:31:17;5.70;68.30
52036;DHT22;38046;49.448;32.074;2022-11-20T04:33:43;5.60;68.30
52036;DHT22;38046;49.448;32.074;2022-11-20T04:38:35;5.50;68.70
52036;DHT22;38046;49.448;32.074;2022-11-20T04:41:02;5.50;68.70
52036;DHT22;38046;49.448;32.074;2022-11-20T04:43:29;5.50;68.80
52036;DHT22;38046;49.448;32.074;2022-11-20T04:45:55;5.50;69.00
52036;DHT22;38046;49.448;32.074;2022-11-20T04:48:22;5.50;69.20
52036;DHT22;38046;49.448;32.074;2022-11-20T04:50:48;5.50;69.30
52036;DHT22;38046;49.448;32.074;2022-11-20T04:53:14;5.40;69.20
52036;DHT22;38046;49.448;32.074;2022-11-20T04:55:39;5.40;69.50
52036;DHT22;38046;49.448;32.074;2022-11-20T04:58:05;5.50;69.50
52036;DHT22;38046;49.448;32.074;2022-11-20T05:00:31;5.50;69.60
52036;DHT22;38046;49.448;32.074;2022-11-20T05:02:56;5.60;69.50
52036;DHT22;38046;49.448;32.074;2022-11-20T05:05:22;5.60;69.50
52036;DHT22;38046;49.448;32.074;2022-11-20T05:07:48;5.70;70.10
52036;DHT22;38046;49.448;32.074;2022-11-20T05:10:13;5.70;69.20
52036;DHT22;38046;49.448;32.074;2022-11-20T05:12:39;5.70;69.20
52036;DHT22;38046;49.448;32.074;2022-11-20T05:15:05;5.80;69.30
52036;DHT22;38046;49.448;32.074;2022-11-20T05:17:31;5.80;69.20
52036;DHT22;38046;49.448;32.074;2022-11-20T05:19:56;5.80;69.20
52036;DHT22;38046;49.448;32.074;2022-11-20T05:22:22;5.80;69.20
52036;DHT22;38046;49.448;32.074;2022-11-20T05:24:47;5.80;69.20
52036;DHT22;38046;49.448;32.074;2022-11-20T05:27:13;5.80;69.30
52036;DHT22;38046;49.448;32.074;2022-11-20T05:29:39;5.80;69.40
52036;DHT22;38046;49.448;32.074;2022-11-20T05:32:04;5.80;69.30
52036;DHT22;38046;49.448;32.074;2022-11-20T05:34:32;5.80;69.30
52036;DHT22;38046;49.448;32.074;2022-11-20T05:36:58;5.70;69.20
52036;DHT22;38046;49.448;32.074;2022-11-20T05:39:23;5.70;69.20
52036;DHT22;38046;49.448;32.074;2022-11-20T05:41:49;5.70;69.30
52036;DHT22;38046;49.448;32.074;2022-11-20T05:44:34;5.60;69.20
52036;DHT22;38046;49.448;32.074;2022-11-20T05:47:00;5.60;69.30
52036;DHT22;38046;49.448;32.074;2022-11-20T05:49:26;5.50;69.50
52036;DHT22;38046;49.448;32.074;2022-11-20T05:51:51;5.50;69.50
52036;DHT22;38046;49.448;32.074;2022-11-20T05:54:17;5.50;69.70
52036;DHT22;38046;49.448;32.074;2022-11-20T05:56:43;5.40;69.50
52036;DHT22;38046;49.448;32.074;2022-11-20T05:59:08;5.40;69.60
52036;DHT22;38046;49.448;32.074;2022-11-20T06:01:34;5.30;69.70
52036;DHT22;38046;49.448;32.074;2022-11-20T06:04:02;5.30;70.00
52036;DHT22;38046;49.448;32.074;2022-11-20T06:06:28;5.30;70.20
52036;DHT22;38046;49.448;32.074;2022-11-20T06:08:54;5.30;70.30
52036;DHT22;38046;49.448;32.074;2022-11-20T06:11:20;5.30;70.20
52036;DHT22;38046;49.448;32.074;2022-11-20T06:13:46;5.20;70.40
52036;DHT22;38046;49.448;32.074;2022-11-20T06:16:14;5.20;70.30
52036;DHT22;38046;49.448;32.074;2022-11-20T06:18:40;5.20;70.40
52036;DHT22;38046;49.448;32.074;2022-11-20T06:21:08;5.20;70.60
52036;DHT22;38046;49.448;32.074;2022-11-20T06:23:35;5.20;70.70
52036;DHT22;38046;49.448;32.074;2022-11-20T06:26:12;5.10;70.70
52036;DHT22;38046;49.448;32.074;2022-11-20T06:28:38;5.10;70.60
52036;DHT22;38046;49.448;32.074;2022-11-20T06:31:04;5.10;70.90
52036;DHT22;38046;49.448;32.074;2022-11-20T06:33:30;5.00;70.90
52036;DHT22;38046;49.448;32.074;2022-11-20T06:35:57;5.00;70.90
52036;DHT22;38046;49.448;32.074;2022-11-20T06:38:27;5.00;71.10
52036;DHT22;38046;49.448;32.074;2022-11-20T06:40:53;4.90;71.20
52036;DHT22;38046;49.448;32.074;2022-11-20T06:43:20;4.90;71.40
52036;DHT22;38046;49.448;32.074;2022-11-20T06:45:45;4.90;71.70
52036;DHT22;38046;49.448;32.074;2022-11-20T06:48:11;4.90;71.70
52036;DHT22;38046;49.448;32.074;2022-11-20T06:50:37;4.80;71.90
52036;DHT22;38046;49.448;32.074;2022-11-20T06:53:04;4.80;71.90
52036;DHT22;38046;49.448;32.074;2022-11-20T06:55:31;4.80;72.10
52036;DHT22;38046;49.448;32.074;2022-11-20T06:57:57;4.80;72.20
52036;DHT22;38046;49.448;32.074;2022-11-20T07:00:23;4.70;72.30
52036;DHT22;38046;49.448;32.074;2022-11-20T07:02:48;4.70;72.40
52036;DHT22;38046;49.448;32.074;2022-11-20T07:05:14;4.70;72.50
52036;DHT22;38046;49.448;32.074;2022-11-20T07:07:39;4.70;72.70
52036;DHT22;38046;49.448;32.074;2022-11-20T07:10:05;4.70;72.70
52036;DHT22;38046;49.448;32.074;2022-11-20T07:12:31;4.60;72.60
52036;DHT22;38046;49.448;32.074;2022-11-20T07:14:57;4.60;72.70
52036;DHT22;38046;49.448;32.074;2022-11-20T07:17:22;4.60;72.90
52036;DHT22;38046;49.448;32.074;2022-11-20T07:19:48;4.60;72.90
52036;DHT22;38046;49.448;32.074;2022-11-20T07:22:13;4.50;73.00
52036;DHT22;38046;49.448;32.074;2022-11-20T07:24:39;4.50;73.00
52036;DHT22;38046;49.448;32.074;2022-11-20T07:27:05;4.50;73.10
52036;DHT22;38046;49.448;32.074;2022-11-20T07:29:30;4.50;73.20
52036;DHT22;38046;49.448;32.074;2022-11-20T07:31:56;4.50;73.30
52036;DHT22;38046;49.448;32.074;2022-11-20T07:34:22;4.40;73.30
52036;DHT22;38046;49.448;32.074;2022-11-20T07:36:48;4.40;73.30
52036;DHT22;38046;49.448;32.074;2022-11-20T07:39:14;4.20;73.30
52036;DHT22;38046;49.448;32.074;2022-11-20T07:41:39;4.10;73.80
52036;DHT22;38046;49.448;32.074;2022-11-20T07:44:05;3.90;74.30
52036;DHT22;38046;49.448;32.074;2022-11-20T07:46:31;3.80;74.80
52036;DHT22;38046;49.448;32.074;2022-11-20T07:48:56;3.80;75.30
52036;DHT22;38046;49.448;32.074;2022-11-20T07:51:22;3.80;75.80
52036;DHT22;38046;49.448;32.074;2022-11-20T07:53:51;3.80;76.10
52036;DHT22;38046;49.448;32.074;2022-11-20T07:56:16;3.80;76.40
52036;DHT22;38046;49.448;32.074;2022-11-20T07:58:42;3.80;76.60
52036;DHT22;38046;49.448;32.074;2022-11-20T08:01:08;3.90;76.70
52036;DHT22;38046;49.448;32.074;2022-11-20T08:03:34;3.90;76.80
52036;DHT22;38046;49.448;32.074;2022-11-20T08:06:00;4.00;76.80
52036;DHT22;38046;49.448;32.074;2022-11-20T08:08:27;4.00;76.70
52036;DHT22;38046;49.448;32.074;2022-11-20T08:10:53;4.10;76.70
52036;DHT22;38046;49.448;32.074;2022-11-20T08:13:39;4.00;76.50
52036;DHT22;38046;49.448;32.074;2022-11-20T08:16:45;4.00;76.70
52036;DHT22;38046;49.448;32.074;2022-11-20T08:19:12;4.10;76.70
52036;DHT22;38046;49.448;32.074;2022-11-20T08:21:38;4.10;76.70
52036;DHT22;38046;49.448;32.074;2022-11-20T08:24:04;4.10;76.70
52036;DHT22;38046;49.448;32.074;2022-11-20T08:26:30;4.10;76.50
52036;DHT22;38046;49.448;32.074;2022-11-20T08:28:57;4.10;76.50
52036;DHT22;38046;49.448;32.074;2022-11-20T08:31:24;4.10;76.70
52036;DHT22;38046;49.448;32.074;2022-11-20T08:33:50;4.10;76.70
52036;DHT22;38046;49.448;32.074;2022-11-20T08:36:17;4.10;76.60
52036;DHT22;38046;49.448;32.074;2022-11-20T08:38:47;4.00;76.60
52036;DHT22;38046;49.448;32.074;2022-11-20T08:41:13;4.00;76.80
52036;DHT22;38046;49.448;32.074;2022-11-20T08:43:58;3.90;77.00
52036;DHT22;38046;49.448;32.074;2022-11-20T08:46:31;3.90;77.00
52036;DHT22;38046;49.448;32.074;2022-11-20T08:48:58;3.90;77.20
52036;DHT22;38046;49.448;32.074;2022-11-20T08:51:24;3.80;77.50
52036;DHT22;38046;49.448;32.074;2022-11-20T08:53:49;3.80;77.50
52036;DHT22;38046;49.448;32.074;2022-11-20T08:56:16;3.90;77.60
52036;DHT22;38046;49.448;32.074;2022-11-20T08:58:42;3.80;77.70
52036;DHT22;38046;49.448;32.074;2022-11-20T09:01:08;3.80;77.70
52036;DHT22;38046;49.448;32.074;2022-11-20T09:03:33;3.80;77.70
52036;DHT22;38046;49.448;32.074;2022-11-20T09:06:01;3.80;77.90
52036;DHT22;38046;49.448;32.074;2022-11-20T09:08:28;3.80;78.00
52036;DHT22;38046;49.448;32.074;2022-11-20T09:10:55;3.80;78.00
52036;DHT22;38046;49.448;32.074;2022-11-20T09:13:22;3.90;78.30
52036;DHT22;38046;49.448;32.074;2022-11-20T09:15:56;3.90;78.30
52036;DHT22;38046;49.448;32.074;2022-11-20T09:18:22;3.90;78.30
52036;DHT22;38046;49.448;32.074;2022-11-20T09:20:48;4.00;78.30
52036;DHT22;38046;49.448;32.074;2022-11-20T09:23:14;4.00;78.10
52036;DHT22;38046;49.448;32.074;2022-11-20T09:25:40;4.00;77.90
52036;DHT22;38046;49.448;32.074;2022-11-20T09:28:06;4.00;77.70
52036;DHT22;38046;49.448;32.074;2022-11-20T09:30:31;4.00;77.70
52036;DHT22;38046;49.448;32.074;2022-11-20T09:32:57;4.00;77.70
52036;DHT22;38046;49.448;32.074;2022-11-20T09:35:23;3.90;77.80
52036;DHT22;38046;49.448;32.074;2022-11-20T09:37:49;3.90;77.90
52036;DHT22;38046;49.448;32.074;2022-11-20T09:40:44;3.90;77.80
52036;DHT22;38046;49.448;32.074;2022-11-20T09:43:16;3.90;77.80
52036;DHT22;38046;49.448;32.074;2022-11-20T09:48:42;3.90;77.80
52036;DHT22;38046;49.448;32.074;2022-11-20T09:51:35;3.90;77.80
52036;DHT22;38046;49.448;32.074;2022-11-20T09:57:05;3.90;77.50
52036;DHT22;38046;49.448;32.074;2022-11-20T09:59:50;3.90;77.80
52036;DHT22;38046;49.448;32.074;2022-11-20T10:02:32;3.80;78.10
52036;DHT22;38046;49.448;32.074;2022-11-20T10:10:36;3.80;77.80
52036;DHT22;38046;49.448;32.074;2022-11-20T10:13:27;3.80;77.60
52036;DHT22;38046;49.448;32.074;2022-11-20T10:25:06;3.90;77.60
52036;DHT22;38046;49.448;32.074;2022-11-20T10:30:09;3.80;77.80
52036;DHT22;38046;49.448;32.074;2022-11-20T10:32:43;3.80;77.90
52036;DHT22;38046;49.448;32.074;2022-11-20T10:37:44;3.80;77.90
52036;DHT22;38046;49.448;32.074;2022-11-20T10:42:55;3.80;77.90
52036;DHT22;38046;49.448;32.074;2022-11-20T10:48:15;3.70;78.10
52036;DHT22;38046;49.448;32.074;2022-11-20T10:50:48;3.80;78.50
52036;DHT22;38046;49.448;32.074;2022-11-20T10:56:41;3.80;78.50
52036;DHT22;38046;49.448;32.074;2022-11-20T11:01:42;3.90;78.50
52036;DHT22;38046;49.448;32.074;2022-11-20T11:04:35;3.90;78.40
52036;DHT22;38046;49.448;32.074;2022-11-20T11:09:48;3.90;78.40
52036;DHT22;38046;49.448;32.074;2022-11-20T11:12:14;3.90;78.30
52036;DHT22;38046;49.448;32.074;2022-11-20T11:14:45;3.90;78.50
52036;DHT22;38046;49.448;32.074;2022-11-20T11:17:23;3.90;78.50
52036;DHT22;38046;49.448;32.074;2022-11-20T11:20:17;3.90;78.40
52036;DHT22;38046;49.448;32.074;2022-11-20T11:22:57;3.90;78.50
52036;DHT22;38046;49.448;32.074;2022-11-20T11:25:30;3.90;78.60
52036;DHT22;38046;49.448;32.074;2022-11-20T11:28:00;3.90;78.50
52036;DHT22;38046;49.448;32.074;2022-11-20T11:30:28;3.90;78.60
52036;DHT22;38046;49.448;32.074;2022-11-20T11:33:11;3.90;78.70
52036;DHT22;38046;49.448;32.074;2022-11-20T11:35:46;3.90;78.60
52036;DHT22;38046;49.448;32.074;2022-11-20T11:38:18;3.90;78.80
52036;DHT22;38046;49.448;32.074;2022-11-20T11:40:46;3.90;78.90
52036;DHT22;38046;49.448;32.074;2022-11-20T11:43:38;3.90;78.90
52036;DHT22;38046;49.448;32.074;2022-11-20T11:54:16;3.90;79.20
52036;DHT22;38046;49.448;32.074;2022-11-20T11:56:43;3.90;79.30
52036;DHT22;38046;49.448;32.074;2022-11-20T11:59:18;4.00;79.30
52036;DHT22;38046;49.448;32.074;2022-11-20T12:01:53;4.00;79.30
52036;DHT22;38046;49.448;32.074;2022-11-20T12:04:36;4.10;79.40
52036;DHT22;38046;49.448;32.074;2022-11-20T12:07:32;4.10;79.80
52036;DHT22;38046;49.448;32.074;2022-11-20T12:12:58;4.00;78.90
52036;DHT22;38046;49.448;32.074;2022-11-20T12:15:30;4.00;79.00
52036;DHT22;38046;49.448;32.074;2022-11-20T12:17:56;4.00;79.30
52036;DHT22;38046;49.448;32.074;2022-11-20T12:20:26;4.00;79.50
52036;DHT22;38046;49.448;32.074;2022-11-20T12:23:04;4.00;79.60
52036;DHT22;38046;49.448;32.074;2022-11-20T12:25:35;4.00;79.60
52036;DHT22;38046;49.448;32.074;2022-11-20T12:31:23;4.00;79.80
52036;DHT22;38046;49.448;32.074;2022-11-20T12:39:49;3.90;80.00
52036;DHT22;38046;49.448;32.074;2022-11-20T12:42:32;4.00;80.20
52036;DHT22;38046;49.448;32.074;2022-11-20T12:45:46;4.00;80.30
52036;DHT22;38046;49.448;32.074;2022-11-20T12:51:23;3.90;80.10
52036;DHT22;38046;49.448;32.074;2022-11-20T12:53:58;3.90;80.20
52036;DHT22;38046;49.448;32.074;2022-11-20T13:01:32;3.90;80.30
52036;DHT22;38046;49.448;32.074;2022-11-20T13:06:50;3.90;80.40
52036;DHT22;38046;49.448;32.074;2022-11-20T13:09:18;3.90;80.40
52036;DHT22;38046;49.448;32.074;2022-11-20T13:15:27;3.90;80.70
52036;DHT22;38046;49.448;32.074;2022-11-20T13:17:54;3.90;80.60
52036;DHT22;38046;49.448;32.074;2022-11-20T13:20:21;3.90;80.80
52036;DHT22;38046;49.448;32.074;2022-11-20T13:22:54;3.90;80.80
52036;DHT22;38046;49.448;32.074;2022-11-20T13:25:32;3.90;80.80
52036;DHT22;38046;49.448;32.074;2022-11-20T13:28:26;3.90;80.70
52036;DHT22;38046;49.448;32.074;2022-11-20T13:30:54;3.90;80.60
52036;DHT22;38046;49.448;32.074;2022-11-20T13:33:30;3.90;80.50
52036;DHT22;38046;49.448;32.074;2022-11-20T13:38:26;3.90;80.80
52036;DHT22;38046;49.448;32.074;2022-11-20T13:46:00;3.90;80.70
52036;DHT22;38046;49.448;32.074;2022-11-20T13:48:31;3.90;80.80
52036;DHT22;38046;49.448;32.074;2022-11-20T13:57:03;4.00;80.80
52036;DHT22;38046;49.448;32.074;2022-11-20T13:59:40;4.00;80.80
52036;DHT22;38046;49.448;32.074;2022-11-20T14:02:11;4.00;80.90
52036;DHT22;38046;49.448;32.074;2022-11-20T14:04:45;4.00;80.90
52036;DHT22;38046;49.448;32.074;2022-11-20T14:07:13;4.00;80.80
52036;DHT22;38046;49.448;32.074;2022-11-20T14:09:52;4.10;80.80
52036;DHT22;38046;49.448;32.074;2022-11-20T14:12:21;4.10;80.90
52036;DHT22;38046;49.448;32.074;2022-11-20T14:14:52;4.10;81.00
52036;DHT22;38046;49.448;32.074;2022-11-20T14:17:21;4.10;80.80
52036;DHT22;38046;49.448;32.074;2022-11-20T14:19:49;4.20;80.80
52036;DHT22;38046;49.448;32.074;2022-11-20T14:22:24;4.20;80.80
52036;DHT22;38046;49.448;32.074;2022-11-20T14:27:39;4.20;80.40
52036;DHT22;38046;49.448;32.074;2022-11-20T14:30:12;4.20;80.50
52036;DHT22;38046;49.448;32.074;2022-11-20T14:32:38;4.20;81.10
52036;DHT22;38046;49.448;32.074;2022-11-20T14:35:08;4.20;80.50
52036;DHT22;38046;49.448;32.074;2022-11-20T14:37:37;4.20;80.60
52036;DHT22;38046;49.448;32.074;2022-11-20T14:40:26;4.10;80.60
52036;DHT22;38046;49.448;32.074;2022-11-20T14:42:52;4.20;80.70
52036;DHT22;38046;49.448;32.074;2022-11-20T14:45:19;4.20;80.80
52036;DHT22;38046;49.448;32.074;2022-11-20T14:47:45;4.10;80.70
52036;DHT22;38046;49.448;32.074;2022-11-20T14:50:16;4.20;81.00
52036;DHT22;38046;49.448;32.074;2022-11-20T14:52:57;4.20;80.80
52036;DHT22;38046;49.448;32.074;2022-11-20T14:55:34;4.20;80.80
52036;DHT22;38046;49.448;32.074;2022-11-20T14:58:21;4.20;80.80
52036;DHT22;38046;49.448;32.074;2022-11-20T15:01:02;4.20;80.90
52036;DHT22;38046;49.448;32.074;2022-11-20T15:03:39;4.20;80.80
52036;DHT22;38046;49.448;32.074;2022-11-20T15:06:06;4.20;80.80
52036;DHT22;38046;49.448;32.074;2022-11-20T15:08:34;4.20;80.80
52036;DHT22;38046;49.448;32.074;2022-11-20T15:10:59;4.20;80.70
52036;DHT22;38046;49.448;32.074;2022-11-20T15:13:33;4.20;80.70
52036;DHT22;38046;49.448;32.074;2022-11-20T15:16:04;4.20;80.60
52036;DHT22;38046;49.448;32.074;2022-11-20T15:18:38;4.20;80.80
52036;DHT22;38046;49.448;32.074;2022-11-20T15:21:11;4.20;80.80
52036;DHT22;38046;49.448;32.074;2022-11-20T15:23:37;4.30;80.70
52036;DHT22;38046;49.448;32.074;2022-11-20T15:26:04;4.20;80.80
52036;DHT22;38046;49.448;32.074;2022-11-20T15:28:35;4.30;80.70
52036;DHT22;38046;49.448;32.074;2022-11-20T15:31:02;4.30;80.80
52036;DHT22;38046;49.448;32.074;2022-11-20T15:33:28;4.20;80.80
52036;DHT22;38046;49.448;32.074;2022-11-20T15:35:54;4.20;80.70
52036;DHT22;38046;49.448;32.074;2022-11-20T15:38:19;4.20;80.80
52036;DHT22;38046;49.448;32.074;2022-11-20T15:40:45;4.20;80.90
52036;DHT22;38046;49.448;32.074;2022-11-20T15:43:11;4.20;81.00
52036;DHT22;38046;49.448;32.074;2022-11-20T15:45:45;4.20;81.00
52036;DHT22;38046;49.448;32.074;2022-11-20T15:48:18;4.20;80.90
52036;DHT22;38046;49.448;32.074;2022-11-20T15:53:40;4.20;81.10
52036;DHT22;38046;49.448;32.074;2022-11-20T15:56:11;4.20;81.20
52036;DHT22;38046;49.448;32.074;2022-11-20T15:58:36;4.20;81.10
52036;DHT22;38046;49.448;32.074;2022-11-20T16:01:02;4.20;81.10
52036;DHT22;38046;49.448;32.074;2022-11-20T16:03:28;4.20;81.20
52036;DHT22;38046;49.448;32.074;2022-11-20T16:05:53;4.20;81.20
52036;DHT22;38046;49.448;32.074;2022-11-20T16:08:19;4.20;81.30
52036;DHT22;38046;49.448;32.074;2022-11-20T16:10:45;4.20;81.40
52036;DHT22;38046;49.448;32.074;2022-11-20T16:13:16;4.20;81.50
52036;DHT22;38046;49.448;32.074;2022-11-20T16:16:05;4.20;81.50
52036;DHT22;38046;49.448;32.074;2022-11-20T16:18:32;4.20;81.30
52036;DHT22;38046;49.448;32.074;2022-11-20T16:20:58;4.10;81.40
52036;DHT22;38046;49.448;32.074;2022-11-20T16:23:23;4.10;81.60
52036;DHT22;38046;49.448;32.074;2022-11-20T16:25:50;4.10;81.80
52036;DHT22;38046;49.448;32.074;2022-11-20T16:28:16;4.10;81.90
52036;DHT22;38046;49.448;32.074;2022-11-20T16:30:42;4.10;81.90
52036;DHT22;38046;49.448;32.074;2022-11-20T16:33:12;4.20;82.10
52036;DHT22;38046;49.448;32.074;2022-11-20T16:35:38;4.20;82.00
52036;DHT22;38046;49.448;32.074;2022-11-20T16:38:04;4.10;82.00
52036;DHT22;38046;49.448;32.074;2022-11-20T16:40:30;4.10;82.00
52036;DHT22;38046;49.448;32.074;2022-11-20T16:42:55;4.10;81.90
52036;DHT22;38046;49.448;32.074;2022-11-20T16:45:22;4.10;82.00
52036;DHT22;38046;49.448;32.074;2022-11-20T16:47:48;4.20;82.20
52036;DHT22;38046;49.448;32.074;2022-11-20T16:50:14;4.20;82.10
52036;DHT22;38046;49.448;32.074;2022-11-20T16:52:40;4.10;82.30
52036;DHT22;38046;49.448;32.074;2022-11-20T16:55:06;4.20;82.50
52036;DHT22;38046;49.448;32.074;2022-11-20T16:57:32;4.20;82.40
52036;DHT22;38046;49.448;32.074;2022-11-20T16:59:58;4.20;82.30
52036;DHT22;38046;49.448;32.074;2022-11-20T17:02:24;4.20;82.20
52036;DHT22;38046;49.448;32.074;2022-11-20T17:04:51;4.20;82.30
52036;DHT22;38046;49.448;32.074;2022-11-20T17:07:17;4.20;82.30
52036;DHT22;38046;49.448;32.074;2022-11-20T17:09:42;4.30;82.40
52036;DHT22;38046;49.448;32.074;2022-11-20T17:12:08;4.30;82.20
52036;DHT22;38046;49.448;32.074;2022-11-20T17:14:34;4.20;82.30
52036;DHT22;38046;49.448;32.074;2022-11-20T17:17:00;4.20;82.50
52036;DHT22;38046;49.448;32.074;2022-11-20T17:19:25;4.30;82.60
52036;DHT22;38046;49.448;32.074;2022-11-20T17:21:51;4.30;82.50